Time;durP1;ratioP1;P1;durP2;ratioP2;P2;SDS_P1;SDS_P2;PMS_P1;PMS_P2;Temp;Humidity;BMP_temperature;BMP_pressure;BME280_temperature;BME280_humidity;BME280_pressure;Samples;Min_cycle;Max_cycle;Signal;HPM_P1;HPM_P2
2022/10/09 00:02:21;;;;;;;4.90;4.70;;;;;;;;;;4976059;28;20086;-71
2022/10/09 00:04:47;;;;;;;5.00;4.80;;;;;;;;;;4971783;28;20035;-70
2022/10/09 00:07:13;;;;;;;5.00;4.80;;;;;;;;;;4974612;28;20030;-71
2022/10/09 00:09:39;;;;;;;4.90;4.70;;;;;;;;;;4973369;28;20406;-70
2022/10/09 00:12:04;;;;;;;4.97;4.78;;;;;;;;;;4972530;28;20035;-71
2022/10/09 00:14:30;;;;;;;5.00;4.80;;;;;;;;;;4977763;28;20046;-71
2022/10/09 00:16:55;;;;;;;5.00;4.80;;;;;;;;;;4975760;28;20486;-70
2022/10/09 00:19:21;;;;;;;5.10;4.90;;;;;;;;;;4970979;28;20177;-70
2022/10/09 00:21:46;;;;;;;5.10;4.90;;;;;;;;;;4968485;28;20037;-70
2022/10/09 00:24:12;;;;;;;4.90;4.70;;;;;;;;;;4970940;28;20038;-70
2022/10/09 00:26:37;;;;;;;4.63;4.43;;;;;;;;;;4973183;28;20035;-70
2022/10/09 00:29:03;;;;;;;5.00;4.80;;;;;;;;;;4965540;28;20434;-70
2022/10/09 00:31:29;;;;;;;5.10;4.90;;;;;;;;;;4962345;28;20030;-70
2022/10/09 00:33:54;;;;;;;4.97;4.78;;;;;;;;;;4970069;28;20041;-71
2022/10/09 00:36:22;;;;;;;5.15;4.95;;;;;;;;;;4973334;28;20034;-70
2022/10/09 00:38:49;;;;;;;5.00;4.80;;;;;;;;;;4968741;28;20035;-70
2022/10/09 00:41:20;;;;;;;4.93;4.72;;;;;;;;;;4969826;28;20118;-69
2022/10/09 00:43:48;;;;;;;4.80;4.60;;;;;;;;;;4968899;28;20063;-70
2022/10/09 00:46:23;;;;;;;4.47;4.28;;;;;;;;;;4969570;28;20069;-71
2022/10/09 00:48:58;;;;;;;5.00;4.80;;;;;;;;;;4966075;28;20129;-71
2022/10/09 00:51:24;;;;;;;4.80;4.60;;;;;;;;;;4970117;28;20042;-70
2022/10/09 00:53:50;;;;;;;5.07;4.88;;;;;;;;;;4973900;28;20045;-70
2022/10/09 00:56:16;;;;;;;5.05;4.85;;;;;;;;;;4970701;28;20038;-71
2022/10/09 00:58:41;;;;;;;4.80;4.60;;;;;;;;;;4969583;28;20041;-71
2022/10/09 01:01:07;;;;;;;4.97;4.78;;;;;;;;;;4973480;28;20166;-70
2022/10/09 01:03:32;;;;;;;4.72;4.53;;;;;;;;;;4971500;28;20043;-69
2022/10/09 01:06:18;;;;;;;4.75;4.55;;;;;;;;;;4968488;28;20065;-71
2022/10/09 01:09:15;;;;;;;4.90;4.70;;;;;;;;;;4972143;28;20034;-70
2022/10/09 01:12:07;;;;;;;4.72;4.53;;;;;;;;;;4968838;28;20039;-71
2022/10/09 01:14:41;;;;;;;4.90;4.70;;;;;;;;;;4962830;28;20053;-70
2022/10/09 01:17:19;;;;;;;4.97;4.78;;;;;;;;;;4969823;28;20065;-70
2022/10/09 01:20:04;;;;;;;5.00;4.80;;;;;;;;;;4970431;28;20311;-70
2022/10/09 01:22:57;;;;;;;4.93;4.72;;;;;;;;;;4958286;28;20377;-71
2022/10/09 01:25:32;;;;;;;5.10;4.90;;;;;;;;;;4972949;28;20073;-71
2022/10/09 01:27:59;;;;;;;4.70;4.50;;;;;;;;;;4966485;28;20037;-71
2022/10/09 01:30:24;;;;;;;4.50;4.30;;;;;;;;;;4972464;28;20050;-71
2022/10/09 01:32:52;;;;;;;4.78;4.57;;;;;;;;;;4969139;28;20043;-69
2022/10/09 01:35:20;;;;;;;4.93;4.72;;;;;;;;;;4966787;28;20041;-71
2022/10/09 01:37:46;;;;;;;4.95;4.75;;;;;;;;;;4968031;28;20557;-71
2022/10/09 01:40:15;;;;;;;4.70;4.50;;;;;;;;;;4969437;28;20751;-70
2022/10/09 01:42:41;;;;;;;4.80;4.60;;;;;;;;;;4970586;28;20035;-71
2022/10/09 01:45:07;;;;;;;4.80;4.60;;;;;;;;;;4967834;28;20417;-71
2022/10/09 01:47:33;;;;;;;4.90;4.70;;;;;;;;;;4971360;28;20034;-69
2022/10/09 01:50:01;;;;;;;5.03;4.82;;;;;;;;;;4972718;28;20034;-70
2022/10/09 01:52:48;;;;;;;4.97;4.77;;;;;;;;;;4968582;28;20104;-71
2022/10/09 01:55:41;;;;;;;4.70;4.50;;;;;;;;;;4969556;28;20321;-70
2022/10/09 01:58:16;;;;;;;4.95;4.75;;;;;;;;;;4969123;28;20077;-70
2022/10/09 02:00:51;;;;;;;4.70;4.50;;;;;;;;;;4963155;28;20043;-70
2022/10/09 02:03:17;;;;;;;4.80;4.60;;;;;;;;;;4967547;28;20434;-70
2022/10/09 02:05:46;;;;;;;4.82;4.63;;;;;;;;;;4968459;28;20038;-71
2022/10/09 02:08:16;;;;;;;5.10;4.90;;;;;;;;;;4969571;28;20505;-70
2022/10/09 02:10:45;;;;;;;5.03;4.82;;;;;;;;;;4969431;28;20022;-70
2022/10/09 02:13:11;;;;;;;4.70;4.50;;;;;;;;;;4968669;28;20034;-70
2022/10/09 02:15:50;;;;;;;4.90;4.70;;;;;;;;;;4971155;28;20466;-70
2022/10/09 02:18:24;;;;;;;5.00;4.80;;;;;;;;;;4964846;28;20045;-71
2022/10/09 02:20:53;;;;;;;4.93;4.72;;;;;;;;;;4968254;28;20037;-70
2022/10/09 02:23:20;;;;;;;;;;;;;;;;;;4970480;28;20037;-71
2022/10/09 02:25:46;;;;;;;4.65;4.45;;;;;;;;;;4964308;28;19988;-71
2022/10/09 02:28:11;;;;;;;5.00;4.80;;;;;;;;;;4968040;28;20046;-70
2022/10/09 02:30:53;;;;;;;4.60;4.40;;;;;;;;;;4968302;28;20532;-70
2022/10/09 02:33:26;;;;;;;4.70;4.50;;;;;;;;;;4967043;28;20084;-70
2022/10/09 02:35:51;;;;;;;4.65;4.45;;;;;;;;;;4966920;28;20712;-69
2022/10/09 02:38:17;;;;;;;4.85;4.65;;;;;;;;;;4971347;28;20329;-71
2022/10/09 02:40:42;;;;;;;4.90;4.70;;;;;;;;;;4970641;28;20042;-70
2022/10/09 02:43:08;;;;;;;4.70;4.50;;;;;;;;;;4968849;28;20073;-71
2022/10/09 02:45:33;;;;;;;5.10;4.90;;;;;;;;;;4958131;28;20058;-70
2022/10/09 02:47:59;;;;;;;4.90;4.70;;;;;;;;;;4970700;28;20501;-70
2022/10/09 02:50:24;;;;;;;4.80;4.60;;;;;;;;;;4968829;28;20089;-70
2022/10/09 02:52:50;;;;;;;4.75;4.55;;;;;;;;;;4967851;28;20440;-70
2022/10/09 02:55:15;;;;;;;4.80;4.60;;;;;;;;;;4965866;28;20102;-70
2022/10/09 02:57:41;;;;;;;5.40;5.10;;;;;;;;;;4967425;28;20546;-70
2022/10/09 03:00:07;;;;;;;4.70;4.50;;;;;;;;;;4970052;28;20490;-71
2022/10/09 03:02:32;;;;;;;4.80;4.60;;;;;;;;;;4985016;28;20034;-70
2022/10/09 03:04:58;;;;;;;5.00;4.80;;;;;;;;;;4966429;28;20085;-70
2022/10/09 03:07:23;;;;;;;4.80;4.60;;;;;;;;;;4965837;28;20101;-71
2022/10/09 03:09:49;;;;;;;4.95;4.75;;;;;;;;;;4968069;28;20487;-70
2022/10/09 03:12:19;;;;;;;4.80;4.60;;;;;;;;;;4969406;28;20038;-70
2022/10/09 03:14:45;;;;;;;4.90;4.70;;;;;;;;;;4964755;28;20035;-70
2022/10/09 03:17:11;;;;;;;4.80;4.60;;;;;;;;;;4967564;28;20463;-70
2022/10/09 03:19:36;;;;;;;4.85;4.65;;;;;;;;;;4966874;28;20450;-71
2022/10/09 03:22:02;;;;;;;4.55;4.35;;;;;;;;;;4967415;28;20438;-70
2022/10/09 03:24:27;;;;;;;4.38;4.18;;;;;;;;;;4965381;28;20066;-70
2022/10/09 03:26:53;;;;;;;4.70;4.50;;;;;;;;;;4968865;28;20054;-70
2022/10/09 03:29:19;;;;;;;4.75;4.55;;;;;;;;;;4967140;28;21065;-71
2022/10/09 03:31:44;;;;;;;4.63;4.43;;;;;;;;;;4968010;28;20039;-71
2022/10/09 03:34:10;;;;;;;4.55;4.35;;;;;;;;;;4969080;28;20042;-71
2022/10/09 03:36:36;;;;;;;4.72;4.53;;;;;;;;;;4970542;28;20035;-71
2022/10/09 03:39:02;;;;;;;4.80;4.60;;;;;;;;;;4970107;28;20376;-71
2022/10/09 03:41:28;;;;;;;4.65;4.45;;;;;;;;;;4970601;28;20359;-70
2022/10/09 03:43:53;;;;;;;4.50;4.30;;;;;;;;;;4973753;28;20039;-71
2022/10/09 03:46:19;;;;;;;4.80;4.60;;;;;;;;;;4971236;28;20042;-72
2022/10/09 03:48:45;;;;;;;4.68;4.47;;;;;;;;;;4973037;28;20077;-70
2022/10/09 03:51:10;;;;;;;4.70;4.50;;;;;;;;;;4972428;28;20042;-70
2022/10/09 03:53:36;;;;;;;4.88;4.68;;;;;;;;;;4972898;28;20042;-70
2022/10/09 03:56:02;;;;;;;4.88;4.68;;;;;;;;;;4970238;28;20050;-70
2022/10/09 03:58:27;;;;;;;4.43;4.22;;;;;;;;;;4967503;28;20070;-71
2022/10/09 04:00:53;;;;;;;4.80;4.60;;;;;;;;;;4971986;28;20133;-71
2022/10/09 04:03:19;;;;;;;4.70;4.50;;;;;;;;;;4973604;28;21114;-71
2022/10/09 04:05:45;;;;;;;7.53;7.05;;;;;;;;;;4973426;28;20475;-71
2022/10/09 04:08:10;;;;;;;4.90;4.70;;;;;;;;;;4969851;28;20047;-70
2022/10/09 04:10:36;;;;;;;4.80;4.60;;;;;;;;;;4971092;28;20035;-71
2022/10/09 04:13:02;;;;;;;4.60;4.40;;;;;;;;;;4972386;28;20133;-70
2022/10/09 04:15:27;;;;;;;4.40;4.20;;;;;;;;;;4968678;28;20054;-70
2022/10/09 04:17:53;;;;;;;4.90;4.70;;;;;;;;;;4970684;28;20383;-69
2022/10/09 04:20:20;;;;;;;4.65;4.45;;;;;;;;;;4970401;28;20074;-71
2022/10/09 04:22:45;;;;;;;4.50;4.30;;;;;;;;;;4973370;28;20030;-71
2022/10/09 04:25:11;;;;;;;4.60;4.40;;;;;;;;;;4967548;28;20038;-70
2022/10/09 04:27:37;;;;;;;4.63;4.43;;;;;;;;;;4971431;28;20043;-71
2022/10/09 04:30:04;;;;;;;4.70;4.50;;;;;;;;;;4972736;28;20062;-71
2022/10/09 04:32:29;;;;;;;4.50;4.30;;;;;;;;;;4972765;28;20035;-70
2022/10/09 04:34:55;;;;;;;4.70;4.50;;;;;;;;;;4970621;28;20172;-71
2022/10/09 04:37:20;;;;;;;4.50;4.30;;;;;;;;;;4968755;28;20042;-70
2022/10/09 04:39:46;;;;;;;4.38;4.18;;;;;;;;;;4972317;28;20034;-70
2022/10/09 04:42:11;;;;;;;4.55;4.35;;;;;;;;;;4970345;28;20037;-70
2022/10/09 04:44:37;;;;;;;4.80;4.60;;;;;;;;;;4966492;28;20049;-71
2022/10/09 04:47:02;;;;;;;4.57;4.38;;;;;;;;;;4967256;28;20121;-70
2022/10/09 04:49:28;;;;;;;4.88;4.68;;;;;;;;;;4970506;28;20042;-70
2022/10/09 04:51:53;;;;;;;4.55;4.35;;;;;;;;;;4969481;28;20479;-71
2022/10/09 04:54:19;;;;;;;4.65;4.45;;;;;;;;;;4964837;28;20310;-71
2022/10/09 04:56:44;;;;;;;4.38;4.18;;;;;;;;;;4970173;28;20117;-70
2022/10/09 04:59:10;;;;;;;4.90;4.70;;;;;;;;;;4970085;28;20125;-70
2022/10/09 05:01:36;;;;;;;4.47;4.28;;;;;;;;;;4967162;28;20099;-71
2022/10/09 05:04:01;;;;;;;4.68;4.47;;;;;;;;;;4968022;28;20042;-71
2022/10/09 05:06:27;;;;;;;5.00;4.80;;;;;;;;;;4969933;28;20326;-70
2022/10/09 05:08:53;;;;;;;4.80;4.60;;;;;;;;;;4969107;28;20096;-70
2022/10/09 05:11:21;;;;;;;4.70;4.50;;;;;;;;;;4969069;28;20085;-70
2022/10/09 05:13:53;;;;;;;4.80;4.60;;;;;;;;;;4968552;28;20034;-70
2022/10/09 05:16:22;;;;;;;4.80;4.60;;;;;;;;;;4970577;28;20077;-71
2022/10/09 05:18:49;;;;;;;4.60;4.40;;;;;;;;;;4970838;28;20077;-70
2022/10/09 05:21:15;;;;;;;4.78;4.57;;;;;;;;;;4967644;28;20404;-71
2022/10/09 05:23:41;;;;;;;4.55;4.35;;;;;;;;;;4958765;28;20035;-70
2022/10/09 05:26:11;;;;;;;4.60;4.40;;;;;;;;;;4966076;28;20037;-71
2022/10/09 05:28:36;;;;;;;4.40;4.20;;;;;;;;;;4968778;28;20046;-72
2022/10/09 05:31:04;;;;;;;4.45;4.25;;;;;;;;;;4969594;28;20034;-71
2022/10/09 05:33:30;;;;;;;4.60;4.40;;;;;;;;;;4965609;28;20037;-72
2022/10/09 05:35:57;;;;;;;4.25;4.05;;;;;;;;;;4966756;28;20035;-71
2022/10/09 05:38:24;;;;;;;4.70;4.50;;;;;;;;;;4968724;28;20046;-71
2022/10/09 05:40:51;;;;;;;4.70;4.50;;;;;;;;;;4969023;28;20125;-71
2022/10/09 05:43:17;;;;;;;4.50;4.30;;;;;;;;;;4972130;28;20643;-70
2022/10/09 05:45:42;;;;;;;4.40;4.20;;;;;;;;;;4969726;28;20045;-71
2022/10/09 05:48:08;;;;;;;4.72;4.53;;;;;;;;;;4969608;28;20050;-71
2022/10/09 05:50:33;;;;;;;4.47;4.28;;;;;;;;;;4969009;28;20050;-71
2022/10/09 05:52:59;;;;;;;4.60;4.40;;;;;;;;;;4969172;28;20023;-70
2022/10/09 05:55:26;;;;;;;4.40;4.20;;;;;;;;;;4969193;28;20657;-71
2022/10/09 05:57:52;;;;;;;4.50;4.30;;;;;;;;;;4965071;28;20553;-72
2022/10/09 06:00:17;;;;;;;4.68;4.47;;;;;;;;;;4969010;28;20495;-72
2022/10/09 06:02:43;;;;;;;4.57;4.38;;;;;;;;;;4967731;28;20035;-71
2022/10/09 06:05:09;;;;;;;4.90;4.70;;;;;;;;;;4970330;28;20027;-71
2022/10/09 06:07:34;;;;;;;4.75;4.55;;;;;;;;;;4966143;28;20554;-71
2022/10/09 06:10:00;;;;;;;4.80;4.60;;;;;;;;;;4968689;28;20043;-71
2022/10/09 06:12:25;;;;;;;4.90;4.70;;;;;;;;;;4969360;28;20038;-71
2022/10/09 06:14:51;;;;;;;5.00;4.80;;;;;;;;;;4969218;28;20031;-71
2022/10/09 06:17:16;;;;;;;4.80;4.60;;;;;;;;;;4970170;28;20038;-71
2022/10/09 06:19:42;;;;;;;4.57;4.38;;;;;;;;;;4967240;28;20451;-72
2022/10/09 06:22:07;;;;;;;4.95;4.75;;;;;;;;;;4971668;28;20438;-71
2022/10/09 06:24:33;;;;;;;5.22;5.03;;;;;;;;;;4970706;28;20402;-71
2022/10/09 06:26:58;;;;;;;4.80;4.60;;;;;;;;;;4968968;28;20026;-71
2022/10/09 06:29:25;;;;;;;5.40;5.10;;;;;;;;;;4965488;28;20026;-71
2022/10/09 06:31:50;;;;;;;4.88;4.68;;;;;;;;;;4966462;28;20041;-70
2022/10/09 06:34:16;;;;;;;4.97;4.78;;;;;;;;;;4967917;28;20026;-70
2022/10/09 06:36:41;;;;;;;5.15;4.95;;;;;;;;;;4968261;28;20038;-70
2022/10/09 06:39:10;;;;;;;5.25;5.05;;;;;;;;;;4967789;28;20097;-71
2022/10/09 06:41:35;;;;;;;5.18;4.97;;;;;;;;;;4968890;28;20121;-71
2022/10/09 06:44:12;;;;;;;5.10;4.90;;;;;;;;;;4953827;28;20047;-71
2022/10/09 06:46:40;;;;;;;5.15;4.93;;;;;;;;;;4966623;28;20035;-71
2022/10/09 06:49:06;;;;;;;4.88;4.68;;;;;;;;;;4967234;28;20065;-71
2022/10/09 06:51:33;;;;;;;5.05;4.85;;;;;;;;;;4966136;28;20035;-70
2022/10/09 06:54:01;;;;;;;4.80;4.60;;;;;;;;;;4965459;28;20117;-70
2022/10/09 06:56:29;;;;;;;5.18;4.97;;;;;;;;;;4965111;28;20514;-70
2022/10/09 06:58:55;;;;;;;5.10;4.90;;;;;;;;;;4966792;28;20105;-71
2022/10/09 07:01:25;;;;;;;4.97;4.78;;;;;;;;;;4965422;28;20491;-70
2022/10/09 07:03:56;;;;;;;5.28;5.07;;;;;;;;;;4964920;28;20034;-71
2022/10/09 07:06:26;;;;;;;5.18;4.97;;;;;;;;;;4967446;28;20039;-70
2022/10/09 07:08:56;;;;;;;5.15;4.95;;;;;;;;;;4969436;28;20090;-71
2022/10/09 07:11:23;;;;;;;;;;;;;;;;;;4973346;28;20069;-71
2022/10/09 07:13:50;;;;;;;5.30;5.10;;;;;;;;;;4967677;28;19922;-70
2022/10/09 07:16:37;;;;;;;5.28;5.07;;;;;;;;;;4970717;28;20043;-71
2022/10/09 07:19:06;;;;;;;5.05;4.85;;;;;;;;;;4972981;28;20133;-70
2022/10/09 07:21:33;;;;;;;5.53;5.32;;;;;;;;;;4968112;28;20109;-71
2022/10/09 07:24:00;;;;;;;5.88;5.57;;;;;;;;;;4969325;28;20486;-70
2022/10/09 07:26:27;;;;;;;6.10;5.80;;;;;;;;;;4972809;28;20038;-70
2022/10/09 07:28:53;;;;;;;5.88;5.57;;;;;;;;;;4968844;28;20585;-71
2022/10/09 07:31:18;;;;;;;5.85;5.55;;;;;;;;;;4967632;28;20483;-71
2022/10/09 07:33:48;;;;;;;5.95;5.65;;;;;;;;;;4968281;28;20067;-71
2022/10/09 07:36:14;;;;;;;5.45;5.25;;;;;;;;;;4967844;28;20035;-71
2022/10/09 07:38:40;;;;;;;5.75;5.45;;;;;;;;;;4968611;28;20395;-71
2022/10/09 07:41:08;;;;;;;5.90;5.60;;;;;;;;;;4970261;28;20034;-71
2022/10/09 07:43:40;;;;;;;5.93;5.63;;;;;;;;;;4972112;28;20088;-71
2022/10/09 07:46:10;;;;;;;6.07;5.78;;;;;;;;;;4971296;28;20046;-71
2022/10/09 07:48:36;;;;;;;5.90;5.60;;;;;;;;;;4969623;28;20042;-71
2022/10/09 07:51:23;;;;;;;6.07;5.78;;;;;;;;;;4971272;28;20602;-71
2022/10/09 07:53:48;;;;;;;5.60;5.40;;;;;;;;;;4965010;28;20445;-71
2022/10/09 07:56:16;;;;;;;5.93;5.63;;;;;;;;;;4971962;28;20035;-71
2022/10/09 07:58:47;;;;;;;6.70;6.40;;;;;;;;;;4971286;28;20073;-71
2022/10/09 08:01:12;;;;;;;5.30;5.10;;;;;;;;;;4973510;28;20077;-71
2022/10/09 08:03:38;;;;;;;5.30;5.10;;;;;;;;;;4968883;28;20097;-71
2022/10/09 08:06:04;;;;;;;5.30;5.10;;;;;;;;;;4974532;28;20042;-71
2022/10/09 08:08:29;;;;;;;5.60;5.40;;;;;;;;;;4968858;28;20674;-71
2022/10/09 08:10:55;;;;;;;5.53;5.32;;;;;;;;;;4970930;28;20065;-71
2022/10/09 08:13:21;;;;;;;6.05;5.75;;;;;;;;;;4974344;28;20042;-71
2022/10/09 08:15:46;;;;;;;6.07;5.78;;;;;;;;;;4974745;28;20035;-71
2022/10/09 08:18:12;;;;;;;5.20;5.00;;;;;;;;;;4969480;28;20513;-72
2022/10/09 08:20:38;;;;;;;5.50;5.30;;;;;;;;;;4975408;28;20041;-72
2022/10/09 08:23:04;;;;;;;6.07;5.78;;;;;;;;;;4971203;28;20031;-71
2022/10/09 08:25:34;;;;;;;5.57;5.35;;;;;;;;;;4970827;28;20178;-71
2022/10/09 08:27:59;;;;;;;5.70;5.40;;;;;;;;;;4965612;28;20057;-71
2022/10/09 08:30:25;;;;;;;5.90;5.60;;;;;;;;;;4969448;28;20411;-71
2022/10/09 08:32:51;;;;;;;5.95;5.65;;;;;;;;;;4975784;28;20034;-71
2022/10/09 08:35:16;;;;;;;5.55;5.35;;;;;;;;;;4970520;28;20045;-71
2022/10/09 08:37:42;;;;;;;5.97;5.68;;;;;;;;;;4969984;28;20033;-72
2022/10/09 08:40:14;;;;;;;5.90;5.60;;;;;;;;;;4969915;28;20125;-71
2022/10/09 08:42:51;;;;;;;6.40;6.10;;;;;;;;;;4967175;28;20124;-72
2022/10/09 08:45:18;;;;;;;5.65;5.43;;;;;;;;;;4969912;28;20709;-72
2022/10/09 08:47:55;;;;;;;5.60;5.40;;;;;;;;;;4967681;28;20116;-71
2022/10/09 08:50:26;;;;;;;6.32;6.03;;;;;;;;;;4965364;28;20302;-71
2022/10/09 08:53:46;;;;;;;5.82;5.53;;;;;;;;;;4969074;28;20826;-72
2022/10/09 08:56:13;;;;;;;5.85;5.55;;;;;;;;;;4968928;28;20043;-71
2022/10/09 08:58:41;;;;;;;5.65;5.40;;;;;;;;;;4967692;28;20041;-71
2022/10/09 09:01:21;;;;;;;5.65;5.43;;;;;;;;;;4970931;28;20046;-72
2022/10/09 09:03:52;;;;;;;5.65;5.43;;;;;;;;;;4968350;28;20045;-70
2022/10/09 09:06:18;;;;;;;5.35;5.15;;;;;;;;;;4968143;28;20071;-72
2022/10/09 09:08:59;;;;;;;5.80;5.50;;;;;;;;;;4967900;28;20065;-71
2022/10/09 09:11:50;;;;;;;6.07;5.78;;;;;;;;;;4971767;28;20075;-72
2022/10/09 09:14:25;;;;;;;6.10;5.80;;;;;;;;;;4966666;28;20061;-73
2022/10/09 09:17:01;;;;;;;6.20;5.90;;;;;;;;;;4968924;28;20039;-72
2022/10/09 09:19:46;;;;;;;5.53;5.32;;;;;;;;;;4969652;28;20045;-72
2022/10/09 09:22:13;;;;;;;5.65;5.43;;;;;;;;;;4969682;28;20062;-72
2022/10/09 09:24:45;;;;;;;5.72;5.43;;;;;;;;;;4966086;28;20110;-71
2022/10/09 09:27:15;;;;;;;5.65;5.40;;;;;;;;;;4969806;28;20039;-71
2022/10/09 09:30:11;;;;;;;5.90;5.60;;;;;;;;;;4969269;28;20042;-73
2022/10/09 09:32:40;;;;;;;5.90;5.60;;;;;;;;;;4965965;28;20482;-71
2022/10/09 09:35:45;;;;;;;5.60;5.40;;;;;;;;;;4969047;28;20046;-71
2022/10/09 09:38:14;;;;;;;5.53;5.32;;;;;;;;;;4960859;28;20162;-71
2022/10/09 09:40:41;;;;;;;5.30;5.10;;;;;;;;;;4967548;28;20191;-73
2022/10/09 09:43:22;;;;;;;5.50;5.30;;;;;;;;;;4968448;28;20514;-72
2022/10/09 09:45:51;;;;;;;5.22;5.03;;;;;;;;;;4967623;28;20041;-70
2022/10/09 09:48:36;;;;;;;5.45;5.25;;;;;;;;;;4967214;28;20047;-71
2022/10/09 09:51:05;;;;;;;5.50;5.30;;;;;;;;;;4964672;28;20038;-72
2022/10/09 09:53:34;;;;;;;5.50;5.30;;;;;;;;;;4964894;28;20035;-73
2022/10/09 09:56:00;;;;;;;5.20;5.00;;;;;;;;;;4971571;28;20042;-72
2022/10/09 09:58:33;;;;;;;5.07;4.88;;;;;;;;;;4968087;28;20713;-71
2022/10/09 10:01:02;;;;;;;5.03;4.82;;;;;;;;;;4965851;28;20108;-72
2022/10/09 10:03:28;;;;;;;5.38;5.18;;;;;;;;;;4965748;28;20034;-71
2022/10/09 10:05:54;;;;;;;5.20;5.00;;;;;;;;;;4968768;28;20502;-73
2022/10/09 10:08:25;;;;;;;5.07;4.88;;;;;;;;;;4965756;28;20077;-71
2022/10/09 10:10:57;;;;;;;5.88;5.57;;;;;;;;;;4966722;28;20551;-70
2022/10/09 10:13:36;;;;;;;5.35;5.15;;;;;;;;;;4965986;28;20030;-71
2022/10/09 10:16:04;;;;;;;5.47;5.28;;;;;;;;;;4965865;28;20046;-73
2022/10/09 10:18:37;;;;;;;5.40;5.20;;;;;;;;;;4959194;28;20045;-71
2022/10/09 10:21:12;;;;;;;5.35;5.15;;;;;;;;;;4965524;28;20045;-71
2022/10/09 10:23:49;;;;;;;5.20;5.00;;;;;;;;;;4966973;28;20042;-71
2022/10/09 10:26:23;;;;;;;5.18;4.97;;;;;;;;;;4965084;28;20039;-71
2022/10/09 10:29:01;;;;;;;5.10;4.90;;;;;;;;;;4963989;28;20050;-71
2022/10/09 10:31:47;;;;;;;5.00;4.80;;;;;;;;;;4963049;28;20043;-72
2022/10/09 10:34:37;;;;;;;5.13;4.93;;;;;;;;;;4964384;28;20039;-71
2022/10/09 10:37:12;;;;;;;5.13;4.85;;;;;;;;;;4965577;28;20731;-73
2022/10/09 10:40:00;;;;;;;5.00;4.80;;;;;;;;;;4966976;28;20042;-71
2022/10/09 10:43:08;;;;;;;5.40;5.20;;;;;;;;;;4964731;28;20065;-72
2022/10/09 10:45:43;;;;;;;5.40;5.20;;;;;;;;;;4971044;28;20081;-73
2022/10/09 10:48:23;;;;;;;5.70;5.40;;;;;;;;;;4970953;28;20174;-71
2022/10/09 10:51:23;;;;;;;5.38;5.18;;;;;;;;;;4968761;28;20030;-73
2022/10/09 10:54:12;;;;;;;5.38;5.18;;;;;;;;;;4968497;28;20778;-73
2022/10/09 10:56:42;;;;;;;5.40;5.20;;;;;;;;;;4967538;28;20138;-73
2022/10/09 10:59:19;;;;;;;5.15;4.95;;;;;;;;;;4968014;28;20122;-72
2022/10/09 11:02:19;;;;;;;5.00;4.80;;;;;;;;;;4969771;28;20042;-71
2022/10/09 11:05:21;;;;;;;5.00;4.80;;;;;;;;;;4967858;28;20069;-70
2022/10/09 11:08:04;;;;;;;5.30;5.10;;;;;;;;;;4969830;28;20045;-70
2022/10/09 11:10:48;;;;;;;5.30;5.10;;;;;;;;;;4969404;28;20058;-70
2022/10/09 11:13:33;;;;;;;6.07;5.78;;;;;;;;;;4968007;28;20074;-70
2022/10/09 11:16:41;;;;;;;5.00;4.80;;;;;;;;;;4969933;28;20113;-70
2022/10/09 11:19:15;;;;;;;5.40;5.20;;;;;;;;;;4969899;28;20034;-70
2022/10/09 11:22:06;;;;;;;5.60;5.30;;;;;;;;;;4968298;28;20186;-69
2022/10/09 11:25:20;;;;;;;5.30;5.10;;;;;;;;;;4967482;28;20578;-69
2022/10/09 11:28:02;;;;;;;5.40;5.20;;;;;;;;;;4952623;28;20073;-70
2022/10/09 11:30:35;;;;;;;5.40;5.20;;;;;;;;;;4968150;28;20038;-70
2022/10/09 11:33:04;;;;;;;4.90;4.70;;;;;;;;;;4968544;28;20043;-70
2022/10/09 11:35:46;;;;;;;5.40;5.20;;;;;;;;;;4967890;28;20069;-71
2022/10/09 11:38:49;;;;;;;5.50;5.30;;;;;;;;;;4969368;28;20097;-70
2022/10/09 11:41:15;;;;;;;5.40;5.20;;;;;;;;;;4954112;28;20047;-69
2022/10/09 11:43:53;;;;;;;5.47;5.28;;;;;;;;;;4952936;28;20595;-69
2022/10/09 11:46:41;;;;;;;5.40;5.20;;;;;;;;;;4954657;28;20043;-70
2022/10/09 11:49:30;;;;;;;9.30;7.05;;;;;;;;;;4952507;28;20047;-69
2022/10/09 11:52:09;;;;;;;5.93;5.63;;;;;;;;;;4950925;28;20077;-70
2022/10/09 11:54:35;;;;;;;5.70;5.40;;;;;;;;;;4948531;28;20034;-70
2022/10/09 11:57:03;;;;;;;5.93;5.63;;;;;;;;;;4952017;28;20047;-70
2022/10/09 11:59:35;;;;;;;6.37;6.07;;;;;;;;;;4950785;28;20066;-69
2022/10/09 12:02:22;;;;;;;6.10;5.80;;;;;;;;;;4950164;28;20316;-70
2022/10/09 12:04:48;;;;;;;6.28;5.97;;;;;;;;;;4952586;28;20043;-69
2022/10/09 12:07:34;;;;;;;7.75;7.05;;;;;;;;;;4951617;28;20031;-70
2022/10/09 12:10:07;;;;;;;6.32;6.03;;;;;;;;;;4952055;28;20578;-69
2022/10/09 12:12:33;;;;;;;6.40;6.10;;;;;;;;;;4933086;28;20149;-70
2022/10/09 12:15:30;;;;;;;6.20;5.90;;;;;;;;;;4958109;28;20061;-69
2022/10/09 12:17:55;;;;;;;6.35;6.05;;;;;;;;;;4961342;28;20038;-70
2022/10/09 12:20:25;;;;;;;6.43;6.13;;;;;;;;;;4968240;28;20114;-70
2022/10/09 12:22:55;;;;;;;6.43;6.13;;;;;;;;;;4971531;28;20039;-70
2022/10/09 12:25:39;;;;;;;6.30;6.00;;;;;;;;;;4970563;28;20089;-70
2022/10/09 12:28:06;;;;;;;6.55;6.25;;;;;;;;;;4966315;28;20053;-69
2022/10/09 12:30:37;;;;;;;6.43;6.13;;;;;;;;;;4966713;28;20031;-69
2022/10/09 12:33:28;;;;;;;6.05;5.75;;;;;;;;;;4966578;28;20061;-69
2022/10/09 12:36:05;;;;;;;6.20;5.90;;;;;;;;;;4968143;28;20047;-70
2022/10/09 12:38:31;;;;;;;6.20;5.90;;;;;;;;;;4966530;28;20059;-69
2022/10/09 12:41:00;;;;;;;6.20;5.90;;;;;;;;;;4967620;28;20161;-70
2022/10/09 12:43:26;;;;;;;6.10;5.80;;;;;;;;;;4969968;28;20041;-70
2022/10/09 12:45:52;;;;;;;6.45;6.15;;;;;;;;;;4969443;28;20129;-70
2022/10/09 12:48:24;;;;;;;6.20;5.90;;;;;;;;;;4967588;28;20035;-70
2022/10/09 12:50:51;;;;;;;6.78;6.47;;;;;;;;;;4969549;28;20030;-71
2022/10/09 12:53:23;;;;;;;6.53;6.22;;;;;;;;;;4969835;28;20435;-69
2022/10/09 12:55:50;;;;;;;6.45;6.15;;;;;;;;;;4968548;28;20483;-70
2022/10/09 12:58:21;;;;;;;6.35;6.05;;;;;;;;;;4967403;28;20050;-70
2022/10/09 13:00:50;;;;;;;6.30;6.00;;;;;;;;;;4969254;28;20062;-70
2022/10/09 13:03:35;;;;;;;7.32;6.93;;;;;;;;;;4969376;28;20030;-70
2022/10/09 13:06:07;;;;;;;6.75;6.45;;;;;;;;;;4964678;28;20034;-70
2022/10/09 13:08:38;;;;;;;6.45;6.15;;;;;;;;;;4968470;28;20463;-70
2022/10/09 13:11:15;;;;;;;6.50;6.20;;;;;;;;;;4968659;28;20039;-70
2022/10/09 13:13:41;;;;;;;6.85;6.47;;;;;;;;;;4965346;28;20039;-70
2022/10/09 13:16:09;;;;;;;7.05;6.40;;;;;;;;;;4968931;28;20045;-69
2022/10/09 13:18:36;;;;;;;6.50;6.20;;;;;;;;;;4954304;28;20466;-69
2022/10/09 13:21:16;;;;;;;6.45;6.15;;;;;;;;;;4961026;28;20708;-69
2022/10/09 13:23:42;;;;;;;6.50;6.20;;;;;;;;;;4964280;28;20589;-69
2022/10/09 13:26:27;;;;;;;6.50;6.20;;;;;;;;;;4958152;28;20085;-70
2022/10/09 13:28:55;;;;;;;6.30;6.00;;;;;;;;;;4966814;28;20042;-70
2022/10/09 13:31:21;;;;;;;6.70;6.40;;;;;;;;;;4967238;28;20037;-69
2022/10/09 13:33:47;;;;;;;6.30;6.00;;;;;;;;;;4966260;28;20149;-69
2022/10/09 13:36:14;;;;;;;5.95;5.65;;;;;;;;;;4967534;28;20598;-69
2022/10/09 13:38:40;;;;;;;6.05;5.75;;;;;;;;;;4968332;28;20045;-69
2022/10/09 13:41:12;;;;;;;6.18;5.88;;;;;;;;;;4967635;28;20093;-70
2022/10/09 13:43:37;;;;;;;6.65;6.35;;;;;;;;;;4966217;28;20119;-70
2022/10/09 13:46:03;;;;;;;6.20;5.90;;;;;;;;;;4967468;28;20122;-70
2022/10/09 13:48:30;;;;;;;6.50;6.20;;;;;;;;;;4968515;28;20137;-70
2022/10/09 13:50:58;;;;;;;6.25;5.95;;;;;;;;;;4966605;28;20050;-70
2022/10/09 13:53:23;;;;;;;6.60;6.30;;;;;;;;;;4966103;28;20642;-70
2022/10/09 13:55:52;;;;;;;6.53;6.22;;;;;;;;;;4967620;28;20038;-70
2022/10/09 13:58:19;;;;;;;6.20;5.90;;;;;;;;;;4968296;28;20039;-69
2022/10/09 14:00:45;;;;;;;5.95;5.65;;;;;;;;;;4965815;28;20050;-70
2022/10/09 14:03:11;;;;;;;6.10;5.80;;;;;;;;;;4968010;28;20116;-69
2022/10/09 14:05:37;;;;;;;6.30;6.00;;;;;;;;;;4967708;28;20469;-70
2022/10/09 14:08:02;;;;;;;5.95;5.65;;;;;;;;;;4966234;28;20045;-69
2022/10/09 14:10:28;;;;;;;6.00;5.70;;;;;;;;;;4967299;28;20038;-69
2022/10/09 14:12:53;;;;;;;6.03;5.72;;;;;;;;;;4967690;28;20059;-70
2022/10/09 14:15:19;;;;;;;5.65;5.40;;;;;;;;;;4967937;28;20519;-70
2022/10/09 14:17:45;;;;;;;5.63;5.40;;;;;;;;;;4965059;28;20101;-69
2022/10/09 14:20:11;;;;;;;6.13;5.82;;;;;;;;;;4967232;28;20472;-69
2022/10/09 14:22:36;;;;;;;6.00;5.70;;;;;;;;;;4967790;28;20033;-69
2022/10/09 14:25:02;;;;;;;5.80;5.50;;;;;;;;;;4967611;28;20045;-69
2022/10/09 14:27:28;;;;;;;5.63;5.40;;;;;;;;;;4965655;28;20063;-70
2022/10/09 14:29:54;;;;;;;6.70;6.40;;;;;;;;;;4967874;28;20065;-69
2022/10/09 14:32:20;;;;;;;6.00;5.70;;;;;;;;;;4967243;28;20134;-70
2022/10/09 14:34:45;;;;;;;5.50;5.30;;;;;;;;;;4963178;28;20383;-69
2022/10/09 14:37:11;;;;;;;6.03;5.72;;;;;;;;;;4965978;28;20034;-70
2022/10/09 14:39:37;;;;;;;5.50;5.30;;;;;;;;;;4967635;28;20551;-70
2022/10/09 14:42:02;;;;;;;6.15;5.85;;;;;;;;;;4967229;28;20043;-70
2022/10/09 14:44:28;;;;;;;5.53;5.32;;;;;;;;;;4965760;28;20499;-70
2022/10/09 14:46:54;;;;;;;5.95;5.65;;;;;;;;;;4963447;28;20041;-70
2022/10/09 14:49:20;;;;;;;6.20;5.90;;;;;;;;;;4965785;28;20128;-70
2022/10/09 14:51:46;;;;;;;6.07;5.78;;;;;;;;;;4965256;28;20664;-70
2022/10/09 14:54:12;;;;;;;5.85;5.55;;;;;;;;;;4963817;28;20034;-70
2022/10/09 14:56:37;;;;;;;6.03;5.72;;;;;;;;;;4965413;28;20043;-70
2022/10/09 14:59:07;;;;;;;5.07;4.88;;;;;;;;;;4964617;28;20062;-69
2022/10/09 15:01:33;;;;;;;5.50;5.30;;;;;;;;;;4963795;28;20046;-69
2022/10/09 15:03:59;;;;;;;5.70;5.40;;;;;;;;;;4963886;28;20499;-70